createdAt,value
2022-11-28T00:01:36.485Z,8.98
2022-11-28T00:04:04.571Z,5.60
2022-11-28T00:06:31.353Z,8.95
2022-11-28T00:08:59.580Z,8.10
2022-11-28T00:11:27.342Z,8.05
2022-11-28T00:13:54.785Z,10.25
2022-11-28T00:16:22.633Z,8.45
2022-11-28T00:18:50.414Z,9.02
2022-11-28T00:21:17.042Z,8.38
2022-11-28T00:23:44.986Z,8.38
2022-11-28T00:26:18.695Z,8.63
2022-11-28T00:28:45.730Z,8.98
2022-11-28T00:31:15.008Z,9.95
2022-11-28T00:33:42.064Z,7.93
2022-11-28T00:36:08.822Z,9.15
2022-11-28T00:38:35.362Z,7.00
2022-11-28T00:41:16.195Z,6.25
2022-11-28T00:43:44.729Z,9.50
2022-11-28T00:46:12.691Z,5.57
2022-11-28T00:48:40.094Z,8.82
2022-11-28T00:51:24.621Z,8.63
2022-11-28T00:53:53.187Z,5.72
2022-11-28T00:56:23.131Z,6.85
2022-11-28T00:58:50.266Z,5.03
2022-11-28T01:01:24.322Z,7.43
2022-11-28T01:03:52.844Z,7.60
2022-11-28T01:06:24.009Z,8.57
2022-11-28T01:08:50.764Z,8.15
2022-11-28T01:11:17.533Z,8.63
2022-11-28T01:13:44.280Z,2.78
2022-11-28T01:16:11.469Z,6.32
2022-11-28T01:18:38.232Z,7.80
2022-11-28T01:21:06.590Z,3.90
2022-11-28T01:23:33.338Z,9.07
2022-11-28T01:26:02.212Z,3.50
2022-11-28T01:28:29.700Z,6.95
2022-11-28T01:30:56.249Z,8.85
2022-11-28T01:33:22.811Z,5.90
2022-11-28T01:35:57.509Z,7.68
2022-11-28T01:38:24.470Z,4.18
2022-11-28T01:40:51.580Z,8.73
2022-11-28T01:43:18.721Z,8.48
2022-11-28T01:45:45.561Z,5.57
2022-11-28T01:48:15.865Z,7.28
2022-11-28T01:50:46.156Z,4.85
2022-11-28T01:53:13.484Z,5.47
2022-11-28T01:55:51.302Z,6.93
2022-11-28T01:58:17.942Z,4.68
2022-11-28T02:00:44.608Z,3.75
2022-11-28T02:03:20.960Z,6.63
2022-11-28T02:05:50.260Z,7.38
2022-11-28T02:08:16.854Z,8.82
2022-11-28T02:11:04.906Z,4.28
2022-11-28T02:13:46.597Z,9.77
2022-11-28T02:16:39.508Z,8.15
2022-11-28T02:19:43.532Z,5.30
2022-11-28T02:22:37.692Z,6.07
2022-11-28T02:25:04.616Z,9.07
2022-11-28T02:28:08.225Z,5.00
2022-11-28T02:31:13.046Z,8.93
2022-11-28T02:33:50.231Z,3.67
2022-11-28T02:36:27.169Z,9.65
2022-11-28T02:39:18.383Z,3.42
2022-11-28T02:42:11.280Z,7.72
2022-11-28T02:44:48.770Z,8.73
2022-11-28T02:47:24.264Z,9.18
2022-11-28T02:50:07.437Z,7.95
2022-11-28T02:52:39.263Z,7.53
2022-11-28T02:55:07.620Z,8.55
2022-11-28T02:57:39.377Z,8.63
2022-11-28T03:00:45.414Z,6.82
2022-11-28T03:03:39.455Z,7.45
2022-11-28T03:06:24.366Z,7.93
2022-11-28T03:09:17.998Z,9.10
2022-11-28T03:12:12.380Z,7.40
2022-11-28T03:17:24.170Z,7.65
2022-11-28T03:22:50.813Z,7.82
2022-11-28T03:25:25.091Z,8.45
2022-11-28T03:28:22.405Z,5.38
2022-11-28T03:30:57.872Z,6.43
2022-11-28T03:33:27.929Z,8.50
2022-11-28T03:36:05.679Z,5.03
2022-11-28T03:38:37.174Z,8.00
2022-11-28T03:41:09.539Z,4.18
2022-11-28T03:43:42.210Z,5.88
2022-11-28T03:46:13.615Z,8.82
2022-11-28T03:48:45.506Z,2.80
2022-11-28T03:51:17.890Z,3.25
2022-11-28T03:53:53.940Z,6.25
2022-11-28T03:56:35.668Z,7.60
2022-11-28T03:59:09.515Z,5.32
2022-11-28T04:02:14.371Z,6.88
2022-11-28T04:05:01.352Z,7.05
2022-11-28T04:07:47.110Z,8.30
2022-11-28T04:10:43.823Z,6.10
2022-11-28T04:13:20.049Z,9.07
2022-11-28T04:16:06.804Z,7.38
2022-11-28T04:18:47.939Z,3.55
2022-11-28T04:21:20.563Z,6.05
2022-11-28T04:23:49.342Z,6.10
2022-11-28T04:26:25.661Z,7.10
2022-11-28T04:28:53.996Z,8.13
2022-11-28T04:31:22.871Z,8.02
2022-11-28T04:33:54.871Z,7.80
2022-11-28T04:36:24.424Z,7.43
2022-11-28T04:38:56.566Z,5.90
2022-11-28T04:41:29.227Z,6.75
2022-11-28T04:44:25.276Z,3.63
2022-11-28T04:46:54.495Z,5.63
2022-11-28T04:49:21.455Z,13.02
2022-11-28T04:52:08.753Z,5.68
2022-11-28T04:54:41.599Z,2.95
2022-11-28T04:57:19.131Z,8.73
2022-11-28T04:59:47.552Z,5.30
2022-11-28T05:02:16.577Z,5.25
2022-11-28T05:04:44.860Z,6.57
2022-11-28T05:07:11.590Z,4.78
2022-11-28T05:09:38.635Z,7.40
2022-11-28T05:12:05.780Z,9.10
2022-11-28T05:14:32.355Z,9.80
2022-11-28T05:16:58.838Z,6.72
2022-11-28T05:19:25.455Z,5.75
2022-11-28T05:21:53.507Z,4.80
2022-11-28T05:24:22.255Z,6.75
2022-11-28T05:26:49.103Z,6.60
2022-11-28T05:29:15.623Z,7.13
2022-11-28T05:31:42.187Z,5.75
2022-11-28T05:34:09.050Z,5.88
2022-11-28T05:36:35.567Z,7.30
2022-11-28T05:39:02.072Z,5.40
2022-11-28T05:41:31.147Z,6.60
2022-11-28T05:43:59.291Z,8.25
2022-11-28T05:46:27.064Z,6.40
2022-11-28T05:48:53.617Z,11.27
2022-11-28T05:51:20.400Z,8.57
2022-11-28T05:53:46.943Z,5.20
2022-11-28T05:56:16.529Z,9.77
2022-11-28T05:58:43.400Z,9.20
2022-11-28T06:01:18.357Z,8.43
2022-11-28T06:03:45.877Z,6.88
2022-11-28T06:06:18.093Z,9.25
2022-11-28T06:08:45.734Z,7.20
2022-11-28T06:11:14.752Z,4.55
2022-11-28T06:13:42.651Z,4.47
2022-11-28T06:16:11.116Z,6.43
2022-11-28T06:18:38.577Z,5.50
2022-11-28T06:21:06.939Z,7.28
2022-11-28T06:23:33.855Z,7.90
2022-11-28T06:26:08.955Z,6.50
2022-11-28T06:28:35.893Z,3.92
2022-11-28T06:31:03.050Z,4.65
2022-11-28T06:33:29.711Z,4.00
2022-11-28T06:36:01.424Z,4.57
2022-11-28T06:38:28.806Z,7.88
2022-11-28T06:41:00.209Z,7.03
2022-11-28T06:43:27.363Z,6.97
2022-11-28T06:45:54.033Z,4.35
2022-11-28T06:48:21.111Z,7.35
2022-11-28T06:50:48.170Z,5.07
2022-11-28T06:53:14.796Z,3.60
2022-11-28T06:55:41.733Z,7.55
2022-11-28T06:58:08.677Z,7.03
2022-11-28T07:00:35.625Z,6.75
2022-11-28T07:03:02.351Z,5.45
2022-11-28T07:05:30.469Z,5.47
2022-11-28T07:08:00.462Z,6.22
2022-11-28T07:10:28.789Z,4.75
2022-11-28T07:12:59.334Z,6.85
2022-11-28T07:15:29.062Z,7.32
2022-11-28T07:17:55.598Z,6.72
2022-11-28T07:20:22.123Z,5.15
2022-11-28T07:22:49.027Z,6.85
2022-11-28T07:25:16.065Z,6.90
2022-11-28T07:27:42.746Z,5.88
2022-11-28T07:30:10.048Z,5.20
2022-11-28T07:32:40.580Z,5.60
2022-11-28T07:35:08.920Z,6.28
2022-11-28T07:37:36.040Z,5.00
2022-11-28T07:40:02.537Z,5.33
2022-11-28T07:42:29.143Z,3.28
2022-11-28T07:44:55.620Z,5.88
2022-11-28T07:47:22.131Z,6.18
2022-11-28T07:49:48.696Z,3.45
2022-11-28T07:52:15.413Z,4.10
2022-11-28T07:54:41.954Z,6.75
2022-11-28T07:57:12.261Z,6.22
2022-11-28T07:59:39.737Z,3.97
2022-11-28T08:02:07.039Z,3.97
2022-11-28T08:04:33.878Z,6.60
2022-11-28T08:07:00.468Z,3.63
2022-11-28T08:09:28.364Z,5.97
2022-11-28T08:11:55.397Z,3.90
2022-11-28T08:14:21.957Z,4.90
2022-11-28T08:16:51.247Z,4.32
2022-11-28T08:19:22.941Z,6.25
2022-11-28T08:21:51.139Z,3.13
2022-11-28T08:24:17.986Z,4.95
2022-11-28T08:26:44.667Z,4.65
2022-11-28T08:29:11.317Z,6.82
2022-11-28T08:31:38.897Z,4.32
2022-11-28T08:34:08.637Z,4.88
2022-11-28T08:36:35.255Z,6.00
2022-11-28T08:39:22.300Z,6.07
2022-11-28T08:44:17.652Z,5.35
2022-11-28T08:46:44.893Z,4.28
2022-11-28T08:49:11.976Z,8.65
2022-11-28T08:51:40.340Z,7.60
2022-11-28T08:54:08.406Z,4.72
2022-11-28T08:56:36.109Z,5.07
2022-11-28T08:59:03.657Z,3.58
2022-11-28T09:01:31.485Z,6.32
2022-11-28T09:03:58.223Z,5.60
2022-11-28T09:06:26.430Z,4.95
2022-11-28T09:08:53.977Z,7.03
2022-11-28T09:11:22.836Z,7.25
2022-11-28T09:13:50.258Z,4.10
2022-11-28T09:16:17.409Z,4.00
2022-11-28T09:18:43.974Z,6.32
2022-11-28T09:21:13.177Z,7.28
2022-11-28T09:23:41.376Z,3.05
2022-11-28T09:26:19.507Z,4.28
2022-11-28T09:28:46.500Z,4.35
2022-11-28T09:31:14.630Z,6.50
2022-11-28T09:33:49.418Z,5.05
2022-11-28T09:36:22.596Z,6.20
2022-11-28T09:38:49.279Z,4.50
2022-11-28T09:41:21.946Z,6.53
2022-11-28T09:43:54.684Z,5.78
2022-11-28T09:46:28.763Z,5.05
2022-11-28T09:49:03.425Z,4.50
2022-11-28T09:51:50.414Z,4.40
2022-11-28T09:54:29.478Z,5.35
2022-11-28T09:56:57.341Z,3.78
2022-11-28T09:59:29.294Z,4.82
2022-11-28T10:02:23.409Z,7.82
2022-11-28T10:05:27.474Z,7.68
2022-11-28T10:08:05.284Z,7.82
2022-11-28T10:10:50.420Z,9.57
2022-11-28T10:13:47.068Z,6.57
2022-11-28T10:18:59.594Z,6.18
2022-11-28T10:21:52.902Z,4.88
2022-11-28T10:24:30.948Z,7.20
2022-11-28T10:27:05.100Z,6.82
2022-11-28T10:29:51.569Z,6.63
2022-11-28T10:32:21.192Z,7.93
2022-11-28T10:35:07.887Z,5.45
2022-11-28T10:37:38.422Z,6.18
2022-11-28T10:40:34.886Z,9.65
2022-11-28T10:43:29.084Z,5.10
2022-11-28T10:48:56.835Z,5.10
2022-11-28T10:51:40.432Z,8.75
2022-11-28T10:54:18.097Z,8.02
2022-11-28T10:57:17.450Z,5.30
2022-11-28T11:00:09.661Z,5.82
2022-11-28T11:02:46.519Z,9.02
2022-11-28T11:05:17.327Z,7.85
2022-11-28T11:07:48.982Z,9.18
2022-11-28T11:10:19.570Z,6.10
2022-11-28T11:12:48.099Z,9.18
2022-11-28T11:15:16.428Z,7.65
2022-11-28T11:17:43.041Z,8.82
2022-11-28T11:20:30.075Z,7.65
2022-11-28T11:23:17.367Z,8.00
2022-11-28T11:25:51.338Z,6.72
2022-11-28T11:28:40.851Z,5.68
2022-11-28T11:31:17.309Z,8.70
2022-11-28T11:33:44.195Z,7.88
2022-11-28T11:36:39.972Z,6.70
2022-11-28T11:39:12.625Z,5.15
2022-11-28T11:41:50.787Z,9.13
2022-11-28T11:44:23.062Z,5.90
2022-11-28T11:46:57.430Z,6.25
2022-11-28T11:49:33.839Z,6.35
2022-11-28T11:52:07.578Z,9.68
2022-11-28T11:54:34.130Z,10.02
2022-11-28T11:57:30.927Z,4.63
2022-11-28T11:59:55.669Z,8.40
2022-11-28T12:02:35.607Z,8.57
2022-11-28T12:06:06.080Z,8.63
2022-11-28T12:08:36.987Z,9.85
2022-11-28T12:11:26.659Z,9.18
2022-11-28T12:13:53.779Z,9.82
2022-11-28T12:16:41.705Z,6.38
2022-11-28T12:22:14.701Z,7.00
2022-11-28T12:24:51.951Z,9.18
2022-11-28T12:27:27.693Z,9.13
2022-11-28T12:29:57.196Z,5.18
2022-11-28T12:33:02.610Z,6.32
2022-11-28T12:35:32.193Z,6.20
2022-11-28T12:40:59.245Z,5.03
2022-11-28T12:43:56.290Z,6.90
2022-11-28T12:47:02.259Z,5.80
2022-11-28T12:49:55.011Z,8.13
2022-11-28T12:52:49.112Z,4.60
2022-11-28T12:55:41.500Z,8.85
2022-11-28T12:58:20.003Z,6.13
2022-11-28T13:00:59.560Z,7.38
2022-11-28T13:03:41.513Z,6.55
2022-11-28T13:06:38.885Z,7.22
2022-11-28T13:09:48.837Z,9.38
2022-11-28T13:12:45.818Z,7.20
2022-11-28T13:15:30.854Z,9.18
2022-11-28T13:18:11.267Z,6.57
2022-11-28T13:21:00.570Z,6.55
2022-11-28T13:23:33.888Z,8.13
2022-11-28T13:26:06.011Z,7.78
2022-11-28T13:29:02.643Z,7.95
2022-11-28T13:31:42.573Z,10.65
2022-11-28T13:34:16.776Z,9.60
2022-11-28T13:40:17.844Z,9.25
2022-11-28T13:43:08.444Z,9.35
2022-11-28T13:45:46.054Z,9.05
2022-11-28T13:51:33.686Z,8.52
2022-11-28T13:54:21.618Z,5.60
2022-11-28T13:57:15.503Z,7.93
2022-11-28T14:00:07.702Z,10.50
2022-11-28T14:02:45.320Z,10.60
2022-11-28T14:05:26.700Z,5.05
2022-11-28T14:07:56.093Z,9.05
2022-11-28T14:13:31.507Z,5.28
2022-11-28T14:16:07.799Z,6.07
2022-11-28T14:18:56.242Z,5.50
2022-11-28T14:22:06.208Z,11.68
2022-11-28T14:24:35.839Z,12.63
2022-11-28T14:27:05.563Z,7.85
2022-11-28T14:29:41.023Z,7.97
2022-11-28T14:32:30.055Z,11.07
2022-11-28T14:34:57.364Z,9.45
2022-11-28T14:37:28.507Z,10.40
2022-11-28T14:39:57.425Z,4.85
2022-11-28T14:45:44.839Z,4.78
2022-11-28T14:48:19.371Z,6.72
2022-11-28T14:50:48.175Z,8.82
2022-11-28T14:53:46.964Z,4.32
2022-11-28T14:56:13.399Z,10.52
2022-11-28T14:58:45.199Z,10.40
2022-11-28T15:01:19.541Z,6.35
2022-11-28T15:04:09.942Z,6.90
2022-11-28T15:06:38.706Z,11.23
2022-11-28T15:09:16.770Z,5.70
2022-11-28T15:12:11.558Z,10.50
2022-11-28T15:14:38.944Z,10.07
2022-11-28T15:17:10.942Z,10.43
2022-11-28T15:19:43.174Z,8.15
2022-11-28T15:22:28.448Z,7.88
2022-11-28T15:24:54.948Z,10.55
2022-11-28T15:27:27.387Z,7.35
2022-11-28T15:29:59.782Z,8.88
2022-11-28T15:32:28.823Z,9.63
2022-11-28T15:35:07.913Z,9.55
2022-11-28T15:37:39.047Z,7.43
2022-11-28T15:40:06.562Z,5.60
2022-11-28T15:42:37.777Z,7.97
2022-11-28T15:45:32.597Z,9.85
2022-11-28T15:47:59.168Z,10.05
2022-11-28T15:50:31.889Z,4.95
2022-11-28T15:53:18.893Z,7.95
2022-11-28T15:55:46.359Z,9.05
2022-11-28T15:58:28.626Z,10.20
2022-11-28T16:01:25.492Z,7.82
2022-11-28T16:03:52.057Z,11.65
2022-11-28T16:06:19.871Z,12.85
2022-11-28T16:08:54.870Z,9.32
2022-11-28T16:11:24.318Z,12.10
2022-11-28T16:13:53.782Z,12.15
2022-11-28T16:16:30.305Z,7.80
2022-11-28T16:18:58.804Z,8.57
2022-11-28T16:21:29.760Z,5.53
2022-11-28T16:23:56.312Z,10.50
2022-11-28T16:26:35.514Z,7.18
2022-11-28T16:29:13.443Z,9.43
2022-11-28T16:31:40.962Z,7.35
2022-11-28T16:34:12.851Z,8.48
2022-11-28T16:36:39.935Z,13.25
2022-11-28T16:39:15.414Z,8.75
2022-11-28T16:42:12.114Z,9.07
2022-11-28T16:44:38.722Z,9.20
2022-11-28T16:47:05.241Z,9.32
2022-11-28T16:49:33.705Z,8.05
2022-11-28T16:52:22.056Z,10.40
2022-11-28T16:54:49.807Z,6.88
2022-11-28T16:57:17.205Z,8.52
2022-11-28T16:59:44.856Z,9.02
2022-11-28T17:02:22.967Z,9.00
2022-11-28T17:04:51.640Z,12.30
2022-11-28T17:07:20.624Z,8.07
2022-11-28T17:09:48.383Z,11.75
2022-11-28T17:12:24.489Z,9.40
2022-11-28T17:14:51.398Z,7.90
2022-11-28T17:17:19.741Z,6.28
2022-11-28T17:19:47.193Z,9.70
2022-11-28T17:22:21.001Z,8.80
2022-11-28T17:24:48.800Z,7.10
2022-11-28T17:27:15.994Z,7.97
2022-11-28T17:29:42.785Z,11.82
2022-11-28T17:32:14.531Z,9.73
2022-11-28T17:34:42.171Z,8.80
2022-11-28T17:37:09.693Z,11.52
2022-11-28T17:39:36.302Z,9.88
2022-11-28T17:42:02.910Z,6.65
2022-11-28T17:44:39.446Z,7.20
2022-11-28T17:47:06.192Z,9.60
2022-11-28T17:49:32.775Z,11.00
2022-11-28T17:51:59.323Z,8.27
2022-11-28T17:54:26.953Z,12.05
2022-11-28T17:56:54.687Z,7.20
2022-11-28T17:59:23.200Z,6.03
2022-11-28T18:01:50.772Z,10.50
2022-11-28T18:04:17.404Z,12.18
2022-11-28T18:06:51.240Z,10.05
2022-11-28T18:09:18.338Z,6.38
2022-11-28T18:11:46.778Z,11.40
2022-11-28T18:14:20.208Z,10.20
2022-11-28T18:16:46.931Z,9.80
2022-11-28T18:19:13.940Z,8.23
2022-11-28T18:21:40.609Z,7.28
2022-11-28T18:24:07.599Z,11.88
2022-11-28T18:26:34.943Z,11.98
2022-11-28T18:29:01.501Z,12.30
2022-11-28T18:31:29.107Z,12.70
2022-11-28T18:34:01.665Z,11.15
2022-11-28T18:36:30.670Z,12.38
2022-11-28T18:39:02.286Z,10.93
2022-11-28T18:41:29.539Z,8.02
2022-11-28T18:44:03.784Z,11.73
2022-11-28T18:46:31.730Z,13.73
2022-11-28T18:48:58.865Z,14.25
2022-11-28T18:51:28.747Z,13.88
2022-11-28T18:53:56.607Z,12.75
2022-11-28T18:56:25.493Z,13.27
2022-11-28T18:58:53.851Z,14.98
2022-11-28T19:01:28.490Z,13.93
2022-11-28T19:04:06.974Z,12.50
2022-11-28T19:06:38.709Z,10.68
2022-11-28T19:09:09.454Z,14.88
2022-11-28T19:11:36.129Z,12.43
2022-11-28T19:14:07.810Z,11.07
2022-11-28T19:16:37.268Z,13.25
2022-11-28T19:19:05.832Z,10.32
2022-11-28T19:21:37.239Z,13.38
2022-11-28T19:24:04.710Z,11.68
2022-11-28T19:26:35.687Z,13.68
2022-11-28T19:29:02.546Z,13.68
2022-11-28T19:31:32.472Z,14.52
2022-11-28T19:34:02.284Z,14.48
2022-11-28T19:36:34.521Z,14.13
2022-11-28T19:39:01.650Z,12.43
2022-11-28T19:41:29.454Z,12.55
2022-11-28T19:43:56.295Z,13.95
2022-11-28T19:46:22.872Z,13.13
2022-11-28T19:48:51.502Z,14.57
2022-11-28T19:51:18.734Z,13.38
2022-11-28T19:53:45.420Z,13.55
2022-11-28T19:56:15.708Z,13.38
2022-11-28T19:58:43.339Z,14.02
2022-11-28T20:01:16.464Z,14.10
2022-11-28T20:03:44.663Z,13.25
2022-11-28T20:06:26.404Z,15.05
2022-11-28T20:08:54.642Z,13.77
2022-11-28T20:11:27.421Z,13.35
2022-11-28T20:14:06.824Z,14.00
2022-11-28T20:16:45.237Z,12.43
2022-11-28T20:19:14.256Z,14.00
2022-11-28T20:21:40.949Z,13.18
2022-11-28T20:24:08.333Z,13.13
2022-11-28T20:26:38.471Z,12.23
2022-11-28T20:29:06.345Z,13.13
2022-11-28T20:31:37.480Z,11.57
2022-11-28T20:34:04.835Z,12.07
2022-11-28T20:36:31.812Z,10.13
2022-11-28T20:38:59.371Z,12.15
2022-11-28T20:41:28.497Z,13.38
2022-11-28T20:43:55.849Z,10.20
2022-11-28T20:46:30.127Z,13.20
2022-11-28T20:48:58.806Z,12.63
2022-11-28T20:51:27.758Z,12.30
2022-11-28T20:53:56.325Z,12.93
2022-11-28T20:56:25.897Z,14.32
2022-11-28T21:01:28.336Z,12.15
2022-11-28T21:03:55.131Z,11.60
2022-11-28T21:06:22.267Z,12.35
2022-11-28T21:08:48.982Z,11.85
2022-11-28T21:11:43.454Z,11.27
2022-11-28T21:14:06.750Z,12.50
2022-11-28T21:16:34.384Z,12.70
2022-11-28T21:19:07.619Z,12.15
2022-11-28T21:21:35.904Z,12.57
2022-11-28T21:24:13.132Z,10.65
2022-11-28T21:26:44.203Z,12.15
2022-11-28T21:29:14.759Z,11.52
2022-11-28T21:31:43.662Z,11.70
2022-11-28T21:34:16.864Z,10.20
2022-11-28T21:36:43.814Z,11.07
2022-11-28T21:39:13.939Z,12.15
2022-11-28T21:41:40.598Z,11.13
2022-11-28T21:44:07.258Z,11.77
2022-11-28T21:46:33.827Z,11.63
2022-11-28T21:49:00.442Z,10.85
2022-11-28T21:51:28.699Z,10.65
2022-11-28T21:53:58.516Z,12.45
2022-11-28T21:56:25.635Z,11.38
2022-11-28T21:58:52.483Z,11.23
2022-11-28T22:01:21.305Z,13.98
2022-11-28T22:03:48.684Z,11.88
2022-11-28T22:06:22.285Z,13.60
2022-11-28T22:08:49.386Z,12.27
2022-11-28T22:11:16.374Z,11.82
2022-11-28T22:13:45.334Z,12.63
2022-11-28T22:16:14.641Z,12.02
2022-11-28T22:18:41.724Z,12.32
2022-11-28T22:21:28.695Z,10.52
2022-11-28T22:23:56.370Z,11.52
2022-11-28T22:26:23.015Z,11.55
2022-11-28T22:28:53.558Z,11.90
2022-11-28T22:31:20.984Z,12.43
2022-11-28T22:33:49.736Z,11.48
2022-11-28T22:36:19.682Z,9.85
2022-11-28T22:38:47.056Z,10.32
2022-11-28T22:41:16.293Z,11.10
2022-11-28T22:43:42.840Z,11.77
2022-11-28T22:46:10.640Z,7.95
2022-11-28T22:48:38.548Z,12.57
2022-11-28T22:51:16.048Z,11.93
2022-11-28T22:53:43.263Z,12.00
2022-11-28T22:56:12.847Z,13.23
2022-11-28T22:58:42.853Z,11.80
2022-11-28T23:01:15.516Z,12.57
2022-11-28T23:03:42.350Z,13.98
2022-11-28T23:06:13.129Z,11.88
2022-11-28T23:08:40.381Z,11.18
2022-11-28T23:11:12.621Z,11.73
2022-11-28T23:13:39.936Z,9.77
2022-11-28T23:16:09.375Z,11.45
2022-11-28T23:18:36.075Z,12.07
2022-11-28T23:21:02.799Z,11.43
2022-11-28T23:23:34.101Z,12.02
2022-11-28T23:26:09.645Z,12.23
2022-11-28T23:28:37.249Z,10.90
2022-11-28T23:31:29.263Z,7.95
2022-11-28T23:33:56.581Z,10.73
2022-11-28T23:36:24.745Z,10.02
2022-11-28T23:38:57.463Z,7.93
2022-11-28T23:41:24.989Z,7.03
2022-11-28T23:43:51.920Z,8.10
2022-11-28T23:46:19.813Z,11.00
2022-11-28T23:48:46.970Z,14.52
2022-11-28T23:51:15.125Z,10.88
2022-11-28T23:53:42.427Z,10.38
2022-11-28T23:56:15.380Z,5.20
2022-11-28T23:58:42.018Z,12.25
